Map

Track Data

SID SEASON NUMBER BASIN SUBBASIN NAME ISO_TIME NATURE LAT LON WMO_WIND WMO_PRES WMO_AGENCY TRACK_TYPE DIST2LAND LANDFALL IFLAG USA_AGENCY USA_ATCF_ID USA_LAT USA_LON USA_RECORD USA_STATUS USA_WIND USA_PRES USA_SSHS USA_R34_NE USA_R34_SE USA_R34_SW USA_R34_NW USA_R50_NE USA_R50_SE USA_R50_SW USA_R50_NW USA_R64_NE USA_R64_SE USA_R64_SW USA_R64_NW USA_POCI USA_ROCI USA_RMW USA_EYE TOKYO_LAT TOKYO_LON TOKYO_GRADE TOKYO_WIND TOKYO_PRES TOKYO_R50_DIR TOKYO_R50_LONG TOKYO_R50_SHORT TOKYO_R30_DIR TOKYO_R30_LONG TOKYO_R30_SHORT TOKYO_LAND CMA_LAT CMA_LON CMA_CAT CMA_WIND CMA_PRES HKO_LAT HKO_LON HKO_CAT HKO_WIND HKO_PRES NEWDELHI_LAT NEWDELHI_LON NEWDELHI_GRADE NEWDELHI_WIND NEWDELHI_PRES NEWDELHI_CI NEWDELHI_DP NEWDELHI_POCI REUNION_LAT REUNION_LON REUNION_TYPE REUNION_WIND REUNION_PRES REUNION_TNUM REUNION_CI REUNION_RMW REUNION_R34_NE REUNION_R34_SE REUNION_R34_SW REUNION_R34_NW REUNION_R50_NE REUNION_R50_SE REUNION_R50_SW REUNION_R50_NW REUNION_R64_NE REUNION_R64_SE REUNION_R64_SW REUNION_R64_NW BOM_LAT BOM_LON BOM_TYPE BOM_WIND BOM_PRES BOM_TNUM BOM_CI BOM_RMW BOM_R34_NE BOM_R34_SE BOM_R34_SW BOM_R34_NW BOM_R50_NE BOM_R50_SE BOM_R50_SW BOM_R50_NW BOM_R64_NE BOM_R64_SE BOM_R64_SW BOM_R64_NW BOM_ROCI BOM_POCI BOM_EYE BOM_POS_METHOD BOM_PRES_METHOD NADI_LAT NADI_LON NADI_CAT NADI_WIND NADI_PRES WELLINGTON_LAT WELLINGTON_LON WELLINGTON_WIND WELLINGTON_PRES DS824_LAT DS824_LON DS824_STAGE DS824_WIND DS824_PRES TD9636_LAT TD9636_LON TD9636_STAGE TD9636_WIND TD9636_PRES TD9635_LAT TD9635_LON TD9635_WIND TD9635_PRES TD9635_ROCI NEUMANN_LAT NEUMANN_LON NEUMANN_CLASS NEUMANN_WIND NEUMANN_PRES MLC_LAT MLC_LON MLC_CLASS MLC_WIND MLC_PRES USA_GUST BOM_GUST BOM_GUST_PER REUNION_GUST REUNION_GUST_PER USA_SEAHGT USA_SEARAD_NE USA_SEARAD_SE USA_SEARAD_SW USA_SEARAD_NW STORM_SPEED STORM_DIR
1980075S11072 1980 24 SI MM NOT_NAMED 1980-03-14 12:00:00 TS -10.8000 71.5000 main 1807 1750 O________OO_O_ jtwc_sh SH221980 -10.8000 71.5000 25 -1 -10.8000 71.5000 TC 25 -10.8000 71.5000 1 25 -10.8000 71.5000 TC 25 19 290
1980075S11072 1980 24 SI MM NOT_NAMED 1980-03-14 15:00:00 TS -10.4683 70.5739 main 1750 1705 P________PP_P_ SH221980 -10.4632 70.5519 25 -1 -10.4632 70.5519 TC 25 -10.4837 70.6398 1 26 -10.4632 70.5519 TC 25 18 289
1980075S11072 1980 24 SI MM NOT_NAMED 1980-03-14 18:00:00 TS -10.2082 69.7312 main 1697 1657 O________OP_O_ jtwc_sh SH221980 -10.2000 69.7000 25 -1 -10.2000 69.7000 TC 25 -10.2328 69.8246 1 27 -10.2000 69.7000 TC 25 16 284
1980075S11072 1980 24 SI MM NOT_NAMED 1980-03-14 21:00:00 TS -10.0943 69.0376 main 1649 1602 P________PP_P_ SH221980 -10.0873 69.0176 27 -1 -10.0873 69.0176 TC 27 -10.1154 69.0973 1 28 -10.0873 69.0176 TC 27 12 270
1980075S11072 1980 24 SI MM NOT_NAMED 1980-03-15 00:00:00 TS -10.2000 68.5000 main 1602 1547 O________OO_O_ jtwc_sh SH221980 -10.2000 68.5000 30 -1 -10.2000 68.5000 TC 30 -10.2000 68.5000 1 30 -10.2000 68.5000 TC 30 10 243
1980075S11072 1980 24 SI MM NOT_NAMED 1980-03-15 03:00:00 TS -10.5680 68.0985 main 1539 1485 P________PP_P_ SH221980 -10.5823 68.1126 30 -1 -10.5823 68.1126 TC 30 -10.5250 68.0564 1 31 -10.5823 68.1126 TC 30 11 219
1980075S11072 1980 24 SI MM NOT_NAMED 1980-03-15 06:00:00 TS -11.0771 67.7797 main 1477 1422 O________OP_O_ jtwc_sh SH221980 -11.1000 67.8000 30 -1 -11.1000 67.8000 TC 30 -11.0084 67.7188 1 32 -11.1000 67.8000 TC 30 12 212
1980075S11072 1980 24 SI MM NOT_NAMED 1980-03-15 09:00:00 TS -11.5749 67.4598 main 1414 1352 P________PP_P_ SH221980 -11.5874 67.4725 32 -1 -11.5874 67.4725 TC 32 -11.5377 67.4217 1 33 -11.5874 67.4725 TC 32 11 216
1980075S11072 1980 24 SI MM NOT_NAMED 1980-03-15 12:00:00 TS -12.0000 67.1000 main 1352 1297 O________OO_O_ jtwc_sh SH221980 -12.0000 67.1000 35 0 -12.0000 67.1000 TC 35 -12.0000 67.1000 2 35 -12.0000 67.1000 TC 35 11 231
1980075S11072 1980 24 SI MM NOT_NAMED 1980-03-15 15:00:00 TS -12.2557 66.6112 main 1289 1243 P________PP_P_ SH221980 -12.2526 66.6149 35 0 -12.2526 66.6149 TC 35 -12.2652 66.5999 2 35 -12.2526 66.6149 TC 35 11 247
1980075S11072 1980 24 SI MM NOT_NAMED 1980-03-15 18:00:00 TS -12.4108 66.0937 main 1243 1197 O________OP_O_ jtwc_sh SH221980 -12.4000 66.1000 35 0 -12.4000 66.1000 TC 35 -12.4433 66.0749 2 35 -12.4000 66.1000 TC 35 10 254
1980075S11072 1980 24 SI MM NOT_NAMED 1980-03-15 21:00:00 TS -12.5350 65.5950 main 1197 1159 P________PP_P_ SH221980 -12.5301 65.5975 35 0 -12.5301 65.5975 TC 35 -12.5496 65.5874 2 35 -12.5301 65.5975 TC 35 9 258
1980075S11072 1980 24 SI MM NOT_NAMED 1980-03-16 00:00:00 TS -12.6000 65.2000 main 1159 1144 O________OO_O_ jtwc_sh SH221980 -12.6000 65.2000 35 0 -12.6000 65.2000 TC 35 -12.6000 65.2000 2 35 -12.6000 65.2000 TC 35 6 260
1980075S11072 1980 24 SI MM NOT_NAMED 1980-03-16 03:00:00 TS -12.6372 64.9945 main 1144 1137 P________PP_P_ SH221980 -12.6224 64.9899 37 0 -12.6224 64.9899 TC 37 -12.6816 65.0083 2 36 -12.6224 64.9899 TC 37 3 265
1980075S11072 1980 24 SI MM NOT_NAMED 1980-03-16 06:00:00 TS -12.6267 64.9044 main 1137 1137 O________OP_O_ jtwc_sh SH221980 -12.6000 64.9000 40 0 -12.6000 64.9000 TC 40 -12.7068 64.9175 2 37 -12.6000 64.9000 TC 40 1 274
1980075S11072 1980 24 SI MM NOT_NAMED 1980-03-16 09:00:00 TS -12.6265 64.8546 main 1137 1130 P________PP_P_ SH221980 -12.6175 64.8501 40 0 -12.6175 64.8501 TC 40 -12.6536 64.8680 2 38 -12.6175 64.8501 TC 40 2 321
1980075S11072 1980 24 SI MM NOT_NAMED 1980-03-16 12:00:00 TS -12.5000 64.8000 main 1138 1138 O________OO_O_ jtwc_sh SH221980 -12.5000 64.8000 40 0 -12.5000 64.8000 TC 40 -12.5000 64.8000 2 40 -12.5000 64.8000 TC 40 6 342
1980075S11072 1980 24 SI MM NOT_NAMED 1980-03-16 15:00:00 TS -12.0966 64.6791 main 1166 1166 P________PP_P_ SH221980 -12.0875 64.6799 40 0 -12.0875 64.6799 TC 40 -12.1238 64.6767 2 38 -12.0875 64.6799 TC 40 9 342
1980075S11072 1980 24 SI MM NOT_NAMED 1980-03-16 18:00:00 TS -11.6167 64.5047 main 1197 1197 O________OP_O_ jtwc_sh SH221980 -11.6000 64.5000 40 0 -11.6000 64.5000 TC 40 -11.6670 64.5187 2 37 -11.6000 64.5000 TC 40 10 337
1980075S11072 1980 24 SI MM NOT_NAMED 1980-03-16 21:00:00 TS -11.2091 64.2908 main 1220 1214 P________PP_P_ SH221980 -11.1949 64.2873 37 0 -11.1949 64.2873 TC 37 -11.2517 64.3014 2 36 -11.1949 64.2873 TC 37 8 321
1980075S11072 1980 24 SI MM NOT_NAMED 1980-03-17 00:00:00 TS -11.0000 64.0000 main 1221 1194 O________OO_O_ jtwc_sh SH221980 -11.0000 64.0000 35 0 -11.0000 64.0000 TC 35 -11.0000 64.0000 2 35 -11.0000 64.0000 TC 35 6 276
1980075S11072 1980 24 SI MM NOT_NAMED 1980-03-17 03:00:00 TS -11.1430 63.6483 main 1188 1137 P________PP_P_ SH221980 -11.1674 63.6526 35 0 -11.1674 63.6526 TC 35 -11.0699 63.6353 2 35 -11.1674 63.6526 TC 35 9 240
1980075S11072 1980 24 SI MM NOT_NAMED 1980-03-17 06:00:00 TS -11.4529 63.1951 main 1127 1081 O________OP_O_ jtwc_sh SH221980 -11.5000 63.2000 35 0 -11.5000 63.2000 TC 35 -11.3118 63.1804 2 35 -11.5000 63.2000 TC 35 11 239
1980075S11072 1980 24 SI MM NOT_NAMED 1980-03-17 09:00:00 TS -11.7243 62.6537 main 1081 1016 P________PP_P_ SH221980 -11.7498 62.6599 35 0 -11.7498 62.6599 TC 35 -11.6477 62.6352 2 35 -11.7498 62.6599 TC 35 13 245
1980075S11072 1980 24 SI MM NOT_NAMED 1980-03-17 12:00:00 TS -12.0000 62.0000 main 1016 964 O________OO_O_ jtwc_sh SH221980 -12.0000 62.0000 35 0 -12.0000 62.0000 TC 35 -12.0000 62.0000 2 35 -12.0000 62.0000 TC 35 15 249
1980075S11072 1980 24 SI MM NOT_NAMED 1980-03-17 15:00:00 TS -12.2554 61.2320 main 949 898 P________PP_P_ SH221980 -12.2500 61.2299 35 0 -12.2500 61.2299 TC 35 -12.2715 61.2382 2 35 -12.2500 61.2299 TC 35 16 252
1980075S11072 1980 24 SI MM NOT_NAMED 1980-03-17 18:00:00 TS -12.5098 60.4002 main 898 841 O________OP_O_ jtwc_sh SH221980 -12.5000 60.4000 35 0 -12.5000 60.4000 TC 35 -12.5393 60.4010 2 35 -12.5000 60.4000 TC 35 17 253
1980075S11072 1980 24 SI MM NOT_NAMED 1980-03-17 21:00:00 TS -12.7706 59.5571 main 841 803 P________PP_P_ SH221980 -12.7651 59.5551 35 0 -12.7651 59.5551 TC 35 -12.7872 59.5631 2 35 -12.7651 59.5551 TC 35 16 253
1980075S11072 1980 24 SI MM NOT_NAMED 1980-03-18 00:00:00 TS -13.0000 58.8000 main 803 774 O________OO_O_ jtwc_sh SH221980 -13.0000 58.8000 35 0 -13.0000 58.8000 TC 35 -13.0000 58.8000 2 35 -13.0000 58.8000 TC 35 13 253
1980075S11072 1980 24 SI MM NOT_NAMED 1980-03-18 03:00:00 TS -13.1709 58.2474 main 774 761 P________PP_P_ SH221980 -13.1721 58.2548 35 0 -13.1721 58.2548 TC 35 -13.1675 58.2253 2 36 -13.1721 58.2548 TC 35 10 253
1980075S11072 1980 24 SI MM NOT_NAMED 1980-03-18 06:00:00 TS -13.3001 57.7829 main 761 749 O________OP_O_ jtwc_sh SH221980 -13.3000 57.8000 35 0 -13.3000 57.8000 TC 35 -13.3005 57.7317 2 37 -13.3000 57.8000 TC 35 10 255
1980075S11072 1980 24 SI MM NOT_NAMED 1980-03-18 09:00:00 TS -13.4132 57.3043 main 750 705 P________PP_P_ SH221980 -13.4148 57.3149 37 0 -13.4148 57.3149 TC 37 -13.4084 57.2723 2 38 -13.4148 57.3149 TC 37 10 258
1980075S11072 1980 24 SI MM NOT_NAMED 1980-03-18 12:00:00 TS -13.5000 56.8000 main 705 639 O________OO_O_ jtwc_sh SH221980 -13.5000 56.8000 40 0 -13.5000 56.8000 TC 40 -13.5000 56.8000 2 40 -13.5000 56.8000 TC 40 11 262
1980075S11072 1980 24 SI MM NOT_NAMED 1980-03-18 15:00:00 TS -13.5578 56.2141 main 639 577 P________PP_P_ SH221980 -13.5500 56.2074 40 0 -13.5500 56.2074 TC 40 -13.5813 56.2341 2 -13.5500 56.2074 TC 40 12 264
1980075S11072 1980 24 SI MM NOT_NAMED 1980-03-18 18:00:00 TS -13.6125 55.6124 main 577 523 O________OP_O_ jtwc_sh SH221980 -13.6000 55.6000 40 0 -13.6000 55.6000 TC 40 -13.6501 55.6495 2 -13.6000 55.6000 TC 40 11 263
1980075S11072 1980 24 SI MM NOT_NAMED 1980-03-18 21:00:00 TS -13.6990 55.0426 main 513 458 P________PP_P_ SH221980 -13.6924 55.0350 40 0 -13.6924 55.0350 TC 40 -13.7188 55.0653 2 -13.6924 55.0350 TC 40 11 260
1980075S11072 1980 24 SI MM NOT_NAMED 1980-03-19 00:00:00 TS -13.8000 54.5000 main 458 403 O________OO_O_ jtwc_sh SH221980 -13.8000 54.5000 40 0 -13.8000 54.5000 TC 40 -13.8000 54.5000 2 -13.8000 54.5000 TC 40 10 259
1980075S11072 1980 24 SI MM NOT_NAMED 1980-03-19 03:00:00 TS -13.8947 53.9939 main 403 349 P________PP_P_ SH221980 -13.8924 53.9924 40 0 -13.8924 53.9924 TC 40 -13.9017 53.9985 2 -13.8924 53.9924 TC 40 10 258
1980075S11072 1980 24 SI MM NOT_NAMED 1980-03-19 06:00:00 TS -14.0047 53.5036 main 349 295 O________OP_O_ jtwc_sh SH221980 -14.0000 53.5000 40 0 -14.0000 53.5000 TC 40 -14.0188 53.5145 2 -14.0000 53.5000 TC 40 10 255
1980075S11072 1980 24 SI MM NOT_NAMED 1980-03-19 09:00:00 TS -14.1446 53.0170 main 295 237 P________PP_P_ SH221980 -14.1423 53.0149 40 0 -14.1423 53.0149 TC 40 -14.1516 53.0233 2 -14.1423 53.0149 TC 40 10 253
1980075S11072 1980 24 SI MM NOT_NAMED 1980-03-19 12:00:00 TS -14.3000 52.5000 main 237 184 O________OO_O_ jtwc_sh SH221980 -14.3000 52.5000 40 0 -14.3000 52.5000 TC 40 -14.3000 52.5000 2 35 -14.3000 52.5000 TC 40 11 254
1980075S11072 1980 24 SI MM NOT_NAMED 1980-03-19 15:00:00 TS -14.4476 51.9233 main 175 109 P________PP_P_ SH221980 -14.4424 51.9224 37 0 -14.4424 51.9224 TC 37 -14.4631 51.9260 2 -14.4424 51.9224 TC 37 12 255
1980075S11072 1980 24 SI MM NOT_NAMED 1980-03-19 18:00:00 TS -14.6093 51.3022 main 109 44 O________OP_O_ jtwc_sh SH221980 -14.6000 51.3000 35 0 -14.6000 51.3000 TC 35 -14.6370 51.3086 2 -14.6000 51.3000 TC 35 13 254
1980075S11072 1980 24 SI MM NOT_NAMED 1980-03-19 21:00:00 TS -14.7971 50.6570 main 44 0 P________PP_P_ SH221980 -14.7904 50.6553 35 0 -14.7904 50.6553 TC 35 -14.8174 50.6619 2 -14.7904 50.6553 TC 35 13 253
1980075S11072 1980 24 SI MM NOT_NAMED 1980-03-20 00:00:00 TS -15.0000 50.0000 main 0 O________OO_O_ jtwc_sh SH221980 -15.0000 50.0000 35 0 -15.0000 50.0000 TC 35 -15.0000 50.0000 1 -15.0000 50.0000 TC 35 13 252

About IBTrACS Database

This database is a web-friendly format of International Best Track Archive for Climate Stewardship (IBTrACS), a global best track data archive curated by NOAA dating back to 1842.

Updated: 2021-12-01